createdAt,value
2022-09-03T00:02:06.669Z,4.64
2022-09-03T00:07:38.444Z,4.64
2022-09-03T00:13:10.350Z,4.64
2022-09-03T00:18:42.727Z,4.64
2022-09-03T00:24:15.147Z,4.64
2022-09-03T00:29:45.715Z,4.64
2022-09-03T00:35:17.698Z,4.64
2022-09-03T00:40:49.399Z,4.64
2022-09-03T00:46:21.195Z,4.64
2022-09-03T00:51:53.026Z,4.64
2022-09-03T00:57:24.812Z,4.64
2022-09-03T01:02:56.258Z,4.64
2022-09-03T01:08:28.168Z,4.61
2022-09-03T01:13:59.957Z,4.61
2022-09-03T01:19:31.706Z,4.57
2022-09-03T01:25:03.525Z,4.61
2022-09-03T01:30:35.213Z,4.61
2022-09-03T01:36:07.330Z,4.57
2022-09-03T01:41:39.004Z,4.57
2022-09-03T01:47:10.579Z,4.57
2022-09-03T01:52:42.601Z,4.57
2022-09-03T01:58:14.438Z,4.54
2022-09-03T02:03:45.944Z,4.54
2022-09-03T02:09:17.783Z,4.54
2022-09-03T02:14:49.700Z,4.54
2022-09-03T02:20:21.426Z,4.50
2022-09-03T02:25:52.908Z,4.50
2022-09-03T02:31:24.794Z,4.50
2022-09-03T02:36:56.629Z,4.47
2022-09-03T02:42:28.443Z,4.47
2022-09-03T02:48:00.313Z,4.47
2022-09-03T02:53:32.111Z,4.47
2022-09-03T02:59:03.890Z,4.47
2022-09-03T03:04:35.994Z,4.44
2022-09-03T03:10:07.883Z,4.47
2022-09-03T03:15:39.450Z,4.44
2022-09-03T03:21:11.151Z,4.44
2022-09-03T03:26:42.969Z,4.44
2022-09-03T03:32:14.882Z,4.40
2022-09-03T03:37:46.553Z,4.44
2022-09-03T03:43:18.229Z,4.40
2022-09-03T03:48:49.837Z,4.40
2022-09-03T03:54:21.557Z,4.40
2022-09-03T03:59:53.604Z,4.40
2022-09-03T04:05:25.112Z,4.37
2022-09-03T04:10:56.782Z,4.37
2022-09-03T04:21:58.032Z,4.40
2022-09-03T04:27:29.716Z,4.40
2022-09-03T04:33:01.113Z,4.40
2022-09-03T04:38:32.625Z,4.40
2022-09-03T04:44:04.474Z,4.40
2022-09-03T04:49:36.213Z,4.44
2022-09-03T04:55:08.034Z,4.44
2022-09-03T05:00:39.992Z,4.47
2022-09-03T05:06:11.564Z,4.50
2022-09-03T05:11:43.421Z,4.57
2022-09-03T05:22:48.939Z,4.64
2022-09-03T05:28:20.463Z,4.67
2022-09-03T05:33:52.418Z,4.67
2022-09-03T05:39:23.967Z,4.67
2022-09-03T05:44:55.705Z,4.67
2022-09-03T05:50:27.827Z,4.71
2022-09-03T05:56:01.444Z,4.74
2022-09-03T06:01:33.262Z,4.78
2022-09-03T06:07:05.192Z,4.78
2022-09-03T06:12:37.026Z,4.81
2022-09-03T06:18:08.981Z,4.81
2022-09-03T06:29:13.190Z,4.78
2022-09-03T06:34:44.921Z,4.78
2022-09-03T06:51:22.219Z,4.78
2022-09-03T06:56:53.726Z,4.78
2022-09-03T07:02:25.722Z,4.78
2022-09-03T07:07:57.590Z,4.81
2022-09-03T07:13:29.043Z,4.81
2022-09-03T07:19:01.151Z,4.81
2022-09-03T07:24:32.667Z,4.81
2022-09-03T07:30:04.550Z,4.81
2022-09-03T07:35:38.856Z,4.84
2022-09-03T07:41:10.465Z,4.84
2022-09-03T07:46:42.541Z,4.88
2022-09-03T07:52:14.639Z,4.91
2022-09-03T07:57:46.467Z,4.95
2022-09-03T08:03:18.542Z,4.95
2022-09-03T08:08:50.439Z,5.01
2022-09-03T08:14:22.255Z,5.05
2022-09-03T08:19:54.093Z,5.08
2022-09-03T08:25:26.270Z,5.11
2022-09-03T08:30:58.492Z,5.15
2022-09-03T08:36:30.242Z,5.15
2022-09-03T08:42:02.058Z,5.22
2022-09-03T08:47:34.739Z,5.25
2022-09-03T08:53:06.549Z,5.25
2022-09-03T08:58:38.911Z,5.28
2022-09-03T09:04:11.128Z,5.28
2022-09-03T09:09:43.051Z,5.39
2022-09-03T09:15:15.140Z,5.49
2022-09-03T09:20:47.126Z,5.49
2022-09-03T09:26:18.608Z,5.52
2022-09-03T09:31:50.169Z,5.55
2022-09-03T09:37:21.947Z,5.59
2022-09-03T09:42:53.946Z,5.66
2022-09-03T09:48:25.847Z,5.72
2022-09-03T09:56:18.549Z,5.79
2022-09-03T10:01:50.267Z,5.86
2022-09-03T10:07:22.444Z,5.89
2022-09-03T10:12:54.044Z,5.96
2022-09-03T10:18:26.238Z,6.00
2022-09-03T10:23:57.700Z,6.03
2022-09-03T10:29:29.292Z,6.06
2022-09-03T10:35:01.356Z,6.10
2022-09-03T10:40:33.115Z,6.06
2022-09-03T10:46:04.859Z,6.06
2022-09-03T10:51:37.057Z,6.06
2022-09-03T10:57:08.657Z,6.10
2022-09-03T11:02:40.770Z,6.10
2022-09-03T11:08:12.663Z,6.13
2022-09-03T11:13:44.160Z,6.13
2022-09-03T11:19:16.280Z,6.10
2022-09-03T11:24:48.053Z,6.13
2022-09-03T11:30:19.857Z,6.13
2022-09-03T11:35:51.833Z,6.13
2022-09-03T11:41:23.222Z,6.13
2022-09-03T11:46:54.812Z,6.13
2022-09-03T11:52:26.766Z,6.13
2022-09-03T11:57:58.075Z,6.13
2022-09-03T12:03:29.579Z,6.13
2022-09-03T12:09:01.525Z,6.10
2022-09-03T12:14:32.966Z,6.06
2022-09-03T12:20:04.534Z,6.03
2022-09-03T12:25:35.971Z,6.00
2022-09-03T12:31:07.761Z,5.93
2022-09-03T12:36:39.515Z,5.93
2022-09-03T12:42:11.287Z,5.89
2022-09-03T12:47:43.346Z,5.86
2022-09-03T12:53:14.841Z,5.86
2022-09-03T12:58:46.179Z,5.83
2022-09-03T13:04:17.720Z,5.86
2022-09-03T13:09:49.385Z,5.86
2022-09-03T13:15:20.746Z,5.86
2022-09-03T13:26:23.644Z,5.83
2022-09-03T13:31:54.822Z,5.86
2022-09-03T13:37:26.563Z,5.86
2022-09-03T13:42:58.250Z,5.86
2022-09-03T13:48:29.954Z,5.89
2022-09-03T13:54:01.593Z,5.89
2022-09-03T13:59:32.847Z,5.86
2022-09-03T14:05:04.257Z,5.83
2022-09-03T14:10:36.208Z,5.76
2022-09-03T14:16:09.127Z,5.72
2022-09-03T14:21:41.489Z,5.69
2022-09-03T14:27:13.748Z,5.66
2022-09-03T14:32:46.088Z,5.55
2022-09-03T14:43:49.855Z,5.39
2022-09-03T14:49:22.060Z,5.28
2022-09-03T14:54:57.210Z,5.25
2022-09-03T15:00:31.219Z,5.18
2022-09-03T15:06:03.176Z,5.18
2022-09-03T15:11:34.993Z,5.11
2022-09-03T15:22:39.220Z,5.08
2022-09-03T15:28:10.695Z,5.05
2022-09-03T15:33:42.790Z,5.05
2022-09-03T15:39:14.859Z,5.05
2022-09-03T15:44:46.684Z,5.01
2022-09-03T15:50:18.377Z,5.01
2022-09-03T15:55:50.425Z,5.01
2022-09-03T16:01:22.461Z,5.05
2022-09-03T16:06:54.122Z,5.05
2022-09-03T16:12:25.772Z,5.08
2022-09-03T16:23:29.381Z,5.15
2022-09-03T16:29:01.347Z,5.15
2022-09-03T16:34:33.060Z,5.15
2022-09-03T16:40:04.842Z,5.11
2022-09-03T16:51:08.402Z,5.11
2022-09-03T16:56:39.987Z,5.11
2022-09-03T17:02:37.053Z,5.11
2022-09-03T17:13:15.548Z,5.08
2022-09-03T17:18:47.226Z,5.08
2022-09-03T17:24:19.131Z,5.05
2022-09-03T17:35:21.837Z,5.01
2022-09-03T17:40:53.547Z,4.98
2022-09-03T17:46:25.419Z,4.98
2022-09-03T17:51:57.459Z,4.98
2022-09-03T17:57:29.585Z,4.98
2022-09-03T18:03:01.539Z,4.95
2022-09-03T18:08:33.167Z,4.95
2022-09-03T18:14:05.043Z,4.91
2022-09-03T18:19:36.724Z,4.91
2022-09-03T18:25:08.277Z,4.91
2022-09-03T18:30:39.957Z,4.88
2022-09-03T18:36:12.271Z,4.88
2022-09-03T18:41:43.578Z,4.84
2022-09-03T18:48:01.830Z,4.84
2022-09-03T18:52:47.380Z,4.81
2022-09-03T18:58:19.133Z,4.84
2022-09-03T19:03:50.982Z,4.84
2022-09-03T19:09:22.723Z,4.81
2022-09-03T19:14:54.623Z,4.81
2022-09-03T19:20:26.233Z,4.84
2022-09-03T19:25:58.195Z,4.84
2022-09-03T19:31:30.084Z,4.81
2022-09-03T19:42:33.807Z,4.81
2022-09-03T19:48:05.717Z,4.81
2022-09-03T19:59:10.853Z,4.81
2022-09-03T20:04:42.762Z,4.78
2022-09-03T20:10:14.762Z,4.78
2022-09-03T20:15:46.835Z,4.78
2022-09-03T20:21:18.744Z,4.78
2022-09-03T20:26:50.422Z,4.78
2022-09-03T20:32:22.288Z,4.78
2022-09-03T20:37:54.486Z,4.78
2022-09-03T20:43:26.065Z,4.74
2022-09-03T20:48:57.742Z,4.74
2022-09-03T20:51:21.437Z,4.71
2022-09-03T20:56:53.382Z,4.71
2022-09-03T21:02:25.287Z,4.74
2022-09-03T21:07:56.830Z,4.74
2022-09-03T21:13:28.430Z,4.71
2022-09-03T21:19:00.443Z,4.71
2022-09-03T21:24:32.165Z,4.71
2022-09-03T21:30:04.663Z,4.71
2022-09-03T21:35:36.870Z,4.71
2022-09-03T21:41:08.319Z,4.71
2022-09-03T21:46:40.450Z,4.71
2022-09-03T21:52:12.317Z,4.71
2022-09-03T21:57:44.277Z,4.67
2022-09-03T22:03:15.845Z,4.71
2022-09-03T22:08:47.624Z,4.67
2022-09-03T22:14:20.097Z,4.67
2022-09-03T22:19:52.207Z,4.67
2022-09-03T22:25:24.303Z,4.67
2022-09-03T22:30:55.991Z,4.64
2022-09-03T22:36:27.644Z,4.67
2022-09-03T22:47:33.945Z,4.64
2022-09-03T22:53:02.956Z,4.67
2022-09-03T22:58:34.928Z,4.67
2022-09-03T23:04:06.592Z,4.64
2022-09-03T23:09:38.022Z,4.64
2022-09-03T23:15:15.789Z,4.64
2022-09-03T23:20:47.633Z,4.64
2022-09-03T23:26:19.358Z,4.64
2022-09-03T23:31:50.987Z,4.64
2022-09-03T23:37:33.418Z,4.64
2022-09-03T23:42:54.601Z,4.64
2022-09-03T23:48:26.510Z,4.61
2022-09-03T23:53:58.121Z,4.61
2022-09-03T23:59:29.876Z,4.64
